Bristol, Georgia
Current Conditions -  °F | °C
As of 5:15 AM on Tuesday 27 Jan 2015 (Local Time) from KAYS Reporting Station
Clear Clear  
Wind Chill:   Ceiling: Unl
Heat Index:   Visibility: 10mi
Dew Point:   Wind: 5mph
Humidity: 85%   Direction: 270°W
Pressure: 29.93"   Gusts: NA
Location:  31.45°N, 82.21°W
Report Text: KAYS 271015Z AUTO 27004KT 10SM CLR 05/03 A2993 RMK AO2 T00490025
Loading
Personal Weather Stations






























Interactive Weather Map New forecast layout! Learn more

10-Day Weather Forecast

Advertisements
Track Severe Weather on mobile